Time;durP1;ratioP1;P1;durP2;ratioP2;P2;SDS_P1;SDS_P2;PMS_P1;PMS_P2;Temp;Humidity;BMP_temperature;BMP_pressure;BME280_temperature;BME280_humidity;BME280_pressure;Samples;Min_cycle;Max_cycle;Signal;HPM_P1;HPM_P2
2023/09/26 00:00:34;;;;;;;15.18;8.02;;;;;;;;;;6088788;23;20023;-60
2023/09/26 00:03:21;;;;;;;28.13;10.32;;;;;;;;;;6079343;23;20528;-60
2023/09/26 00:06:19;;;;;;;19.98;10.45;;;;;;;;;;6087786;23;20030;-60
2023/09/26 00:09:07;;;;;;;20.25;9.77;;;;;;;;;;6086512;23;20357;-60
2023/09/26 00:12:00;;;;;;;18.23;9.60;;;;;;;;;;6086120;23;20073;-60
2023/09/26 00:14:54;;;;;;;26.40;10.43;;;;;;;;;;6081673;23;20038;-60
2023/09/26 00:17:55;;;;;;;17.95;9.57;;;;;;;;;;6084763;23;20030;-61
2023/09/26 00:20:42;;;;;;;17.23;9.60;;;;;;;;;;6086330;23;20026;-64
2023/09/26 00:23:36;;;;;;;20.25;10.65;;;;;;;;;;6084648;23;20026;-64
2023/09/26 00:26:23;;;;;;;22.80;10.20;;;;;;;;;;6082217;23;20026;-64
2023/09/26 00:29:17;;;;;;;19.58;11.18;;;;;;;;;;6086765;23;20023;-64
2023/09/26 00:32:04;;;;;;;21.65;10.55;;;;;;;;;;6085542;23;20046;-64
2023/09/26 00:34:58;;;;;;;21.33;10.18;;;;;;;;;;6085762;23;20022;-48
2023/09/26 00:37:50;;;;;;;25.27;11.25;;;;;;;;;;6087212;23;20030;-60
2023/09/26 00:40:44;;;;;;;26.30;10.82;;;;;;;;;;6087919;23;20027;-61
2023/09/26 00:43:32;;;;;;;20.58;11.15;;;;;;;;;;6082132;23;20026;-60
2023/09/26 00:46:26;;;;;;;29.55;11.32;;;;;;;;;;6086125;23;20078;-60
2023/09/26 00:49:20;;;;;;;23.67;10.80;;;;;;;;;;6086708;23;20025;-60
2023/09/26 00:52:07;;;;;;;22.45;11.73;;;;;;;;;;6085204;23;20686;-61
2023/09/26 00:55:04;;;;;;;26.40;11.07;;;;;;;;;;6084887;23;20028;-59
2023/09/26 00:57:50;;;;;;;23.35;10.90;;;;;;;;;;6086089;23;20042;-62
2023/09/26 01:00:44;;;;;;;23.67;11.23;;;;;;;;;;6084248;23;20029;-61
2023/09/26 01:03:31;;;;;;;25.07;11.63;;;;;;;;;;6084665;23;20019;-62
2023/09/26 01:06:25;;;;;;;22.85;11.32;;;;;;;;;;6086371;23;20030;-61
2023/09/26 01:09:13;;;;;;;23.67;11.25;;;;;;;;;;6084354;23;20033;-62
2023/09/26 01:12:13;;;;;;;22.52;10.70;;;;;;;;;;6085908;23;20022;-65
2023/09/26 01:15:00;;;;;;;25.08;12.93;;;;;;;;;;6085326;23;20077;-60
2023/09/26 01:18:07;;;;;;;23.50;11.60;;;;;;;;;;6083702;23;20034;-61
2023/09/26 01:21:01;;;;;;;22.48;11.63;;;;;;;;;;6085515;23;20027;-61
2023/09/26 01:23:58;;;;;;;18.98;12.02;;;;;;;;;;6082719;23;20029;-61
2023/09/26 01:26:46;;;;;;;20.58;10.73;;;;;;;;;;6087186;23;20401;-60
2023/09/26 01:29:39;;;;;;;23.27;10.70;;;;;;;;;;6085722;23;20478;-51
2023/09/26 01:32:26;;;;;;;22.52;12.07;;;;;;;;;;6081530;23;20501;-61
2023/09/26 01:35:20;;;;;;;20.83;10.48;;;;;;;;;;6085675;23;20073;-61
2023/09/26 01:38:07;;;;;;;22.85;11.48;;;;;;;;;;6085945;23;20746;-61
2023/09/26 01:41:01;;;;;;;27.75;12.05;;;;;;;;;;6087579;23;20397;-61
2023/09/26 01:43:48;;;;;;;24.55;12.45;;;;;;;;;;6085042;23;20026;-61
2023/09/26 01:46:42;;;;;;;21.45;11.70;;;;;;;;;;6087449;23;20060;-61
2023/09/26 01:49:30;;;;;;;19.98;12.23;;;;;;;;;;6084730;23;20109;-61
2023/09/26 01:52:24;;;;;;;20.90;12.65;;;;;;;;;;6084909;23;20047;-61
2023/09/26 01:55:19;;;;;;;29.58;12.98;;;;;;;;;;6087028;23;20026;-59
2023/09/26 01:58:13;;;;;;;20.85;13.13;;;;;;;;;;6086401;23;20022;-60
2023/09/26 02:01:07;;;;;;;31.60;14.05;;;;;;;;;;6080660;23;20461;-59
2023/09/26 02:03:54;;;;;;;30.35;14.25;;;;;;;;;;6084907;23;20030;-59
2023/09/26 02:06:48;;;;;;;30.90;13.07;;;;;;;;;;6087486;23;20081;-65
2023/09/26 02:09:35;;;;;;;26.05;14.13;;;;;;;;;;6085756;23;20023;-51
2023/09/26 02:12:29;;;;;;;25.02;12.55;;;;;;;;;;6082616;23;20487;-49
2023/09/26 02:15:16;;;;;;;21.80;12.68;;;;;;;;;;6084891;23;20030;-50
2023/09/26 02:18:23;;;;;;;21.73;11.65;;;;;;;;;;6085298;23;20026;-49
2023/09/26 02:21:17;;;;;;;24.80;12.77;;;;;;;;;;6082368;23;20026;-50
2023/09/26 02:24:11;;;;;;;23.88;12.20;;;;;;;;;;6087569;23;20085;-64
2023/09/26 02:26:58;;;;;;;25.45;13.40;;;;;;;;;;6085905;23;20027;-48
2023/09/26 02:29:52;;;;;;;22.20;12.70;;;;;;;;;;6085839;23;20022;-59
2023/09/26 02:32:39;;;;;;;21.23;13.13;;;;;;;;;;6085389;23;20046;-59
2023/09/26 02:35:33;;;;;;;29.45;15.65;;;;;;;;;;6086185;23;20029;-59
2023/09/26 02:38:20;;;;;;;26.13;14.25;;;;;;;;;;6086959;23;20030;-60
2023/09/26 02:41:14;;;;;;;26.27;14.90;;;;;;;;;;6085308;23;20030;-61
2023/09/26 02:44:03;;;;;;;29.33;14.90;;;;;;;;;;6086423;23;20022;-52
2023/09/26 02:46:55;;;;;;;27.02;15.50;;;;;;;;;;6087498;23;20030;-54
2023/09/26 02:49:42;;;;;;;32.80;17.08;;;;;;;;;;6084035;23;20022;-51
2023/09/26 02:52:37;;;;;;;35.25;17.23;;;;;;;;;;6088670;23;20027;-49
2023/09/26 02:55:24;;;;;;;32.73;17.70;;;;;;;;;;6088098;23;20034;-51
2023/09/26 02:58:18;;;;;;;37.80;17.90;;;;;;;;;;6083918;23;20031;-48
2023/09/26 03:01:05;;;;;;;38.33;16.77;;;;;;;;;;6085667;23;20022;-62
2023/09/26 03:03:59;;;;;;;43.60;19.55;;;;;;;;;;6088010;23;20022;-64
2023/09/26 03:06:46;;;;;;;35.55;17.70;;;;;;;;;;6087979;23;20037;-66
2023/09/26 03:09:40;;;;;;;31.67;17.70;;;;;;;;;;6083521;23;20022;-64
2023/09/26 03:12:27;;;;;;;30.83;17.00;;;;;;;;;;6085280;23;20097;-64
2023/09/26 03:15:21;;;;;;;31.75;17.48;;;;;;;;;;6087469;23;20026;-64
2023/09/26 03:18:01;;;;;;;37.70;16.55;;;;;;;;;;6086987;23;20058;-64
2023/09/26 03:21:04;;;;;;;31.52;16.33;;;;;;;;;;6087564;23;20032;-60
2023/09/26 03:23:49;;;;;;;30.42;16.92;;;;;;;;;;6085620;23;20026;-64
2023/09/26 03:26:43;;;;;;;23.73;15.07;;;;;;;;;;6088653;23;20097;-64
2023/09/26 03:29:30;;;;;;;22.00;12.95;;;;;;;;;;6088184;23;20025;-65
2023/09/26 03:32:24;;;;;;;30.83;15.13;;;;;;;;;;6088026;23;20026;-64
2023/09/26 03:35:18;;;;;;;38.72;16.58;;;;;;;;;;6087067;23;20050;-65
2023/09/26 03:38:12;;;;;;;33.80;15.18;;;;;;;;;;6085314;23;20045;-64
2023/09/26 03:41:06;;;;;;;33.42;16.77;;;;;;;;;;6064652;23;20090;-59
2023/09/26 03:43:59;;;;;;;32.92;17.05;;;;;;;;;;6088517;23;20030;-61
2023/09/26 03:46:53;;;;;;;35.08;18.25;;;;;;;;;;6087468;23;20077;-60
2023/09/26 03:49:40;;;;;;;27.75;15.65;;;;;;;;;;6086969;23;20033;-60
2023/09/26 03:52:34;;;;;;;35.08;17.15;;;;;;;;;;6089049;23;20022;-60
2023/09/26 03:55:28;;;;;;;36.13;17.40;;;;;;;;;;6084639;23;20022;-60
2023/09/26 03:58:15;;;;;;;31.50;17.45;;;;;;;;;;6087759;23;20085;-60
2023/09/26 04:01:09;;;;;;;28.73;15.77;;;;;;;;;;6087339;23;20026;-61
2023/09/26 04:03:56;;;;;;;37.97;16.52;;;;;;;;;;6086729;23;20034;-61
2023/09/26 04:06:50;;;;;;;36.13;17.25;;;;;;;;;;6087292;23;20022;-61
2023/09/26 04:09:37;;;;;;;30.27;16.10;;;;;;;;;;6086453;23;20354;-61
2023/09/26 04:12:31;;;;;;;30.88;16.17;;;;;;;;;;6084958;23;20129;-61
2023/09/26 04:15:19;;;;;;;28.80;15.82;;;;;;;;;;6088021;23;20101;-61
2023/09/26 04:18:26;;;;;;;34.25;15.50;;;;;;;;;;6084568;23;20540;-64
2023/09/26 04:21:20;;;;;;;35.25;15.55;;;;;;;;;;6081547;23;20022;-64
2023/09/26 04:24:15;;;;;;;34.38;16.85;;;;;;;;;;6085805;23;20057;-64
2023/09/26 04:27:01;;;;;;;26.98;15.50;;;;;;;;;;6087355;23;20018;-64
2023/09/26 04:29:55;;;;;;;31.08;16.52;;;;;;;;;;6082776;23;20026;-65
2023/09/26 04:32:42;;;;;;;32.25;16.17;;;;;;;;;;6084278;23;20026;-51
2023/09/26 04:35:36;;;;;;;28.45;14.45;;;;;;;;;;6084790;23;20022;-49
2023/09/26 04:38:24;;;;;;;36.35;16.27;;;;;;;;;;6083967;23;20022;-60
2023/09/26 04:41:18;;;;;;;26.15;14.73;;;;;;;;;;6083378;23;20022;-60
2023/09/26 04:44:07;;;;;;;30.48;14.88;;;;;;;;;;6085154;23;20023;-60
2023/09/26 04:47:00;;;;;;;28.35;15.15;;;;;;;;;;6083796;23;20086;-60
2023/09/26 04:49:36;;;;;;;33.45;15.43;;;;;;;;;;6080192;23;20046;-61
2023/09/26 04:52:04;;;;;;;32.92;15.25;;;;;;;;;;6086178;23;20089;-63
2023/09/26 04:54:37;;;;;;;24.90;14.10;;;;;;;;;;6085025;23;20050;-59
2023/09/26 04:57:06;;;;;;;28.40;15.55;;;;;;;;;;6087527;23;20026;-59
2023/09/26 04:59:33;;;;;;;25.50;13.95;;;;;;;;;;6085841;23;20528;-59
2023/09/26 05:02:07;;;;;;;30.98;15.35;;;;;;;;;;6075727;23;20378;-59
2023/09/26 05:04:34;;;;;;;24.73;13.43;;;;;;;;;;6087477;23;20710;-59
2023/09/26 05:07:29;;;;;;;35.45;15.75;;;;;;;;;;6087737;23;20030;-59
2023/09/26 05:10:16;;;;;;;27.42;14.43;;;;;;;;;;6087581;23;20022;-58
2023/09/26 05:13:10;;;;;;;31.73;15.02;;;;;;;;;;6087460;23;20022;-48
2023/09/26 05:15:57;;;;;;;21.40;13.00;;;;;;;;;;6087562;23;20121;-51
2023/09/26 05:18:58;;;;;;;31.10;15.90;;;;;;;;;;6086339;23;20030;-53
2023/09/26 05:21:45;;;;;;;25.83;14.45;;;;;;;;;;6084495;23;20018;-54
2023/09/26 05:24:39;;;;;;;29.23;14.60;;;;;;;;;;6085863;23;20037;-53
2023/09/26 05:27:30;;;;;;;30.05;13.55;;;;;;;;;;6089188;23;20022;-56
2023/09/26 05:30:23;;;;;;;29.58;15.48;;;;;;;;;;6087183;23;20037;-48
2023/09/26 05:33:10;;;;;;;34.47;14.75;;;;;;;;;;6086952;23;20159;-50
2023/09/26 05:36:04;;;;;;;26.10;14.55;;;;;;;;;;6088758;23;20532;-50
2023/09/26 05:38:51;;;;;;;30.60;14.43;;;;;;;;;;6087679;23;20068;-49
2023/09/26 05:41:45;;;;;;;31.45;15.70;;;;;;;;;;6088018;23;20030;-64
2023/09/26 05:44:39;;;;;;;28.10;15.63;;;;;;;;;;6087418;23;20347;-63
2023/09/26 05:47:26;;;;;;;23.48;13.43;;;;;;;;;;6087939;23;20082;-63
2023/09/26 05:50:20;;;;;;;24.55;14.88;;;;;;;;;;6086801;23;20023;-64
2023/09/26 05:53:14;;;;;;;30.52;15.10;;;;;;;;;;6088897;23;20078;-64
2023/09/26 05:56:08;;;;;;;21.02;12.07;;;;;;;;;;6088314;23;20871;-49
2023/09/26 05:59:02;;;;;;;26.40;15.07;;;;;;;;;;6086399;23;20026;-51
2023/09/26 06:01:49;;;;;;;21.48;11.05;;;;;;;;;;6087451;23;20540;-50
2023/09/26 06:04:44;;;;;;;24.50;13.32;;;;;;;;;;6087419;23;20033;-49
2023/09/26 06:07:32;;;;;;;23.95;12.15;;;;;;;;;;6088431;23;20481;-64
2023/09/26 06:10:25;;;;;;;25.77;14.55;;;;;;;;;;6087018;23;20030;-59
2023/09/26 06:13:13;;;;;;;22.58;12.13;;;;;;;;;;6087511;23;20065;-59
2023/09/26 06:16:08;;;;;;;20.42;11.85;;;;;;;;;;6088093;23;20121;-59
2023/09/26 06:19:02;;;;;;;21.40;13.15;;;;;;;;;;6085650;23;20101;-60
2023/09/26 06:21:56;;;;;;;19.52;10.57;;;;;;;;;;6088663;23;20026;-59
2023/09/26 06:24:44;;;;;;;24.52;13.63;;;;;;;;;;6087329;23;20024;-49
2023/09/26 06:27:38;;;;;;;19.85;10.98;;;;;;;;;;6087485;23;20026;-53
2023/09/26 06:30:25;;;;;;;23.93;13.13;;;;;;;;;;6085653;23;20647;-47
2023/09/26 06:33:20;;;;;;;20.92;11.23;;;;;;;;;;6087449;23;20246;-52
2023/09/26 06:36:19;;;;;;;30.98;13.35;;;;;;;;;;6088382;23;20469;-59
2023/09/26 06:39:11;;;;;;;21.20;11.95;;;;;;;;;;6086932;23;20030;-63
2023/09/26 06:41:58;;;;;;;24.20;12.57;;;;;;;;;;6087489;23;20089;-64
2023/09/26 06:44:51;;;;;;;26.10;12.10;;;;;;;;;;6086787;23;20030;-64
2023/09/26 06:47:38;;;;;;;25.98;12.23;;;;;;;;;;6088330;23;20461;-63
2023/09/26 06:50:32;;;;;;;23.55;11.20;;;;;;;;;;6086746;23;20499;-64
2023/09/26 06:53:19;;;;;;;26.38;11.85;;;;;;;;;;6087806;23;20027;-59
2023/09/26 06:56:13;;;;;;;20.85;11.25;;;;;;;;;;6088229;23;20574;-59
2023/09/26 06:59:00;;;;;;;20.90;11.93;;;;;;;;;;6082769;23;20034;-59
2023/09/26 07:01:54;;;;;;;20.15;11.45;;;;;;;;;;6087145;23;20046;-59
2023/09/26 07:04:42;;;;;;;20.58;11.95;;;;;;;;;;6087895;23;20383;-63
2023/09/26 07:07:36;;;;;;;22.33;11.10;;;;;;;;;;6086871;23;20034;-63
2023/09/26 07:10:23;;;;;;;23.08;10.85;;;;;;;;;;6087022;23;20026;-63
2023/09/26 07:13:17;;;;;;;20.42;10.80;;;;;;;;;;6088374;23;20465;-63
2023/09/26 07:16:15;;;;;;;25.80;10.73;;;;;;;;;;6087013;23;20109;-64
2023/09/26 07:19:16;;;;;;;17.33;9.52;;;;;;;;;;6086379;23;20439;-63
2023/09/26 07:22:03;;;;;;;19.33;10.20;;;;;;;;;;6089451;23;20465;-47
2023/09/26 07:24:58;;;;;;;16.88;10.13;;;;;;;;;;6089054;23;20560;-53
2023/09/26 07:27:44;;;;;;;21.30;9.52;;;;;;;;;;6089543;23;20029;-47
2023/09/26 07:30:38;;;;;;;16.90;8.25;;;;;;;;;;6086077;23;20109;-51
2023/09/26 07:33:28;;;;;;;16.38;9.05;;;;;;;;;;6089253;23;20077;-50
2023/09/26 07:36:20;;;;;;;17.10;9.18;;;;;;;;;;6088060;23;20718;-60
2023/09/26 07:39:08;;;;;;;16.30;9.50;;;;;;;;;;6088673;23;20616;-60
2023/09/26 07:42:01;;;;;;;21.27;9.13;;;;;;;;;;6089134;23;20029;-61
2023/09/26 07:44:58;;;;;;;22.73;10.25;;;;;;;;;;6088308;23;20031;-61
2023/09/26 07:47:51;;;;;;;20.40;9.55;;;;;;;;;;6089701;23;20105;-61
2023/09/26 07:50:38;;;;;;;19.45;9.43;;;;;;;;;;6089608;23;20026;-54
2023/09/26 07:53:32;;;;;;;25.92;10.00;;;;;;;;;;6087967;23;20019;-51
2023/09/26 07:56:19;;;;;;;22.40;10.15;;;;;;;;;;6088706;23;20323;-52
2023/09/26 07:59:13;;;;;;;22.10;9.18;;;;;;;;;;6088030;23;20026;-51
2023/09/26 08:02:00;;;;;;;16.63;9.63;;;;;;;;;;6088876;23;20195;-59
2023/09/26 08:04:54;;;;;;;19.92;10.40;;;;;;;;;;6089341;23;20019;-61
2023/09/26 08:07:43;;;;;;;18.48;9.88;;;;;;;;;;6088780;23;20539;-60
2023/09/26 08:10:38;;;;;;;17.42;9.43;;;;;;;;;;6087595;23;20022;-61
2023/09/26 08:13:25;;;;;;;16.33;10.02;;;;;;;;;;6089239;23;20023;-61
2023/09/26 08:16:21;;;;;;;20.30;9.55;;;;;;;;;;6087951;23;20369;-61
2023/09/26 08:19:14;;;;;;;21.20;10.02;;;;;;;;;;6088610;23;20037;-61
2023/09/26 08:22:15;;;;;;;21.33;9.95;;;;;;;;;;6089326;23;20089;-61
2023/09/26 08:25:03;;;;;;;16.25;11.30;;;;;;;;;;6087566;23;20082;-60
2023/09/26 08:27:58;;;;;;;19.20;10.32;;;;;;;;;;6089621;23;20430;-61
2023/09/26 08:30:45;;;;;;;21.88;11.23;;;;;;;;;;6082645;23;20025;-59
2023/09/26 08:33:40;;;;;;;16.42;11.07;;;;;;;;;;6088446;23;20029;-64
2023/09/26 08:36:27;;;;;;;21.88;10.80;;;;;;;;;;6089076;23;20030;-65
2023/09/26 08:39:21;;;;;;;13.48;10.80;;;;;;;;;;6084442;23;20034;-64
2023/09/26 08:42:09;;;;;;;24.50;13.02;;;;;;;;;;6087628;23;20022;-64
2023/09/26 08:45:02;;;;;;;18.15;12.05;;;;;;;;;;6088106;23;20022;-64
2023/09/26 08:47:49;;;;;;;17.00;11.02;;;;;;;;;;6088687;23;20086;-60
2023/09/26 08:50:43;;;;;;;21.92;11.75;;;;;;;;;;6086834;23;20554;-60
2023/09/26 08:53:31;;;;;;;16.90;9.90;;;;;;;;;;6088158;23;20034;-59
2023/09/26 08:56:24;;;;;;;19.77;11.30;;;;;;;;;;6087912;23;20409;-60
2023/09/26 08:59:12;;;;;;;19.08;10.88;;;;;;;;;;6086977;23;20052;-60
2023/09/26 09:02:05;;;;;;;19.75;10.00;;;;;;;;;;6087010;23;20022;-62
2023/09/26 09:04:53;;;;;;;15.97;9.70;;;;;;;;;;6087733;23;20029;-63
2023/09/26 09:07:47;;;;;;;12.10;8.55;;;;;;;;;;6073555;23;20417;-62
2023/09/26 09:10:48;;;;;;;13.67;8.00;;;;;;;;;;6086206;23;20046;-62
2023/09/26 09:13:42;;;;;;;14.27;8.30;;;;;;;;;;6087527;23;20104;-62
2023/09/26 09:16:28;;;;;;;14.75;9.45;;;;;;;;;;6087795;23;20094;-60
2023/09/26 09:19:29;;;;;;;16.08;8.48;;;;;;;;;;6086284;23;20041;-61
2023/09/26 09:22:23;;;;;;;13.95;7.40;;;;;;;;;;6086351;23;20072;-61
2023/09/26 09:25:16;;;;;;;18.20;8.05;;;;;;;;;;6086088;23;20022;-59
2023/09/26 09:28:05;;;;;;;13.63;8.90;;;;;;;;;;6087112;23;20026;-63
2023/09/26 09:30:59;;;;;;;18.02;8.13;;;;;;;;;;6087397;23;20085;-61
2023/09/26 09:33:47;;;;;;;17.08;7.22;;;;;;;;;;6087991;23;20023;-61
2023/09/26 09:36:40;;;;;;;11.80;6.88;;;;;;;;;;6087306;23;20022;-61
2023/09/26 09:39:28;;;;;;;12.18;6.50;;;;;;;;;;6083766;23;20022;-60
2023/09/26 09:42:22;;;;;;;12.05;7.28;;;;;;;;;;6088060;23;20056;-60
2023/09/26 09:45:09;;;;;;;11.38;7.00;;;;;;;;;;6088646;23;20026;-62
2023/09/26 09:48:06;;;;;;;11.27;7.60;;;;;;;;;;6087275;23;20031;-61
2023/09/26 09:50:53;;;;;;;12.07;7.35;;;;;;;;;;6087826;23;20031;-62
2023/09/26 09:53:53;;;;;;;10.23;7.13;;;;;;;;;;6088609;23;20564;-59
2023/09/26 09:56:40;;;;;;;11.35;6.90;;;;;;;;;;6088340;23;20023;-54
2023/09/26 09:59:36;;;;;;;8.27;6.78;;;;;;;;;;6086349;23;20089;-67
2023/09/26 10:02:24;;;;;;;11.75;6.53;;;;;;;;;;6088317;23;20087;-67
2023/09/26 10:05:19;;;;;;;13.88;6.43;;;;;;;;;;6087790;23;20022;-67
2023/09/26 10:08:06;;;;;;;;;;;;;;;;;;6086433;23;20493;-68
2023/09/26 10:11:01;;;;;;;10.75;6.22;;;;;;;;;;6087008;23;19968;-66
2023/09/26 10:13:48;;;;;;;9.40;6.07;;;;;;;;;;6087502;23;20545;-48
2023/09/26 10:16:42;;;;;;;7.25;5.53;;;;;;;;;;6087370;23;20480;-49
2023/09/26 10:19:37;;;;;;;10.40;5.90;;;;;;;;;;6087872;23;20105;-50
2023/09/26 10:23:08;;;;;;;8.30;5.38;;;;;;;;;;6085866;23;20031;-51
2023/09/26 10:25:56;;;;;;;6.80;5.00;;;;;;;;;;6088075;23;20058;-59
2023/09/26 10:28:49;;;;;;;7.00;4.88;;;;;;;;;;6087698;23;20455;-59
2023/09/26 10:31:53;;;;;;;8.52;5.00;;;;;;;;;;6087412;23;20525;-60
2023/09/26 10:34:46;;;;;;;8.65;5.07;;;;;;;;;;6087464;23;20060;-59
2023/09/26 10:37:46;;;;;;;7.85;5.47;;;;;;;;;;6086990;23;20038;-60
2023/09/26 10:40:36;;;;;;;10.18;5.05;;;;;;;;;;6085878;23;20030;-52
2023/09/26 10:43:23;;;;;;;8.43;4.93;;;;;;;;;;6087783;23;20030;-51
2023/09/26 10:46:25;;;;;;;7.72;5.20;;;;;;;;;;6085512;23;20094;-53
2023/09/26 10:49:12;;;;;;;10.70;4.78;;;;;;;;;;6087573;23;20518;-49
2023/09/26 10:52:09;;;;;;;6.95;4.68;;;;;;;;;;6088434;23;20026;-61
2023/09/26 10:55:11;;;;;;;13.93;5.28;;;;;;;;;;6086210;23;20022;-59
2023/09/26 10:58:04;;;;;;;10.75;4.75;;;;;;;;;;6089464;23;20061;-59
2023/09/26 11:00:52;;;;;;;7.82;4.70;;;;;;;;;;6088106;23;20484;-60
2023/09/26 11:03:47;;;;;;;12.35;4.50;;;;;;;;;;6089057;23;20030;-60
2023/09/26 11:06:37;;;;;;;8.40;4.50;;;;;;;;;;6089283;23;20037;-60
2023/09/26 11:09:29;;;;;;;7.70;4.10;;;;;;;;;;6089537;23;20033;-67
2023/09/26 11:12:16;;;;;;;6.68;3.97;;;;;;;;;;6088381;23;20026;-67
2023/09/26 11:15:10;;;;;;;8.25;4.22;;;;;;;;;;6086667;23;20086;-67
2023/09/26 11:18:04;;;;;;;6.30;4.78;;;;;;;;;;6088798;23;20026;-67
2023/09/26 11:20:58;;;;;;;10.73;5.10;;;;;;;;;;6059580;23;20469;-58
2023/09/26 11:23:57;;;;;;;10.35;5.07;;;;;;;;;;6061834;23;20082;-67
2023/09/26 11:26:45;;;;;;;9.38;4.53;;;;;;;;;;6056463;23;20019;-68
2023/09/26 11:29:41;;;;;;;8.90;4.47;;;;;;;;;;6060613;23;20557;-66
2023/09/26 11:32:28;;;;;;;;;;;;;;;;;;6059499;23;20096;-68
2023/09/26 11:35:22;;;;;;;10.52;4.95;;;;;;;;;;6059135;23;20344;-68
2023/09/26 11:38:09;;;;;;;8.73;4.30;;;;;;;;;;6059335;23;20023;-67
2023/09/26 11:41:03;;;;;;;8.00;4.32;;;;;;;;;;6059900;23;20799;-67
2023/09/26 11:44:12;;;;;;;15.52;5.00;;;;;;;;;;6061117;23;20019;-67
2023/09/26 11:47:08;;;;;;;6.65;4.18;;;;;;;;;;6059604;23;20026;-67
2023/09/26 11:50:01;;;;;;;13.20;4.47;;;;;;;;;;6057923;23;20508;-49
2023/09/26 11:53:00;;;;;;;9.13;4.57;;;;;;;;;;6058631;23;20027;-60
2023/09/26 11:55:51;;;;;;;6.22;4.22;;;;;;;;;;6054510;23;20087;-60
2023/09/26 11:58:39;;;;;;;8.10;3.97;;;;;;;;;;6061124;23;20051;-60
2023/09/26 12:01:27;;;;;;;15.20;3.80;;;;;;;;;;6059068;23;20484;-60
2023/09/26 12:04:22;;;;;;;8.68;4.00;;;;;;;;;;6059827;23;20093;-60
2023/09/26 12:07:09;;;;;;;7.45;4.03;;;;;;;;;;6059772;23;20033;-58
2023/09/26 12:10:03;;;;;;;7.65;4.13;;;;;;;;;;6058524;23;20027;-59
2023/09/26 12:12:50;;;;;;;7.68;3.95;;;;;;;;;;6059637;23;20023;-61
2023/09/26 12:15:43;;;;;;;5.78;3.40;;;;;;;;;;6059563;23;20023;-60
2023/09/26 12:18:31;;;;;;;6.93;3.88;;;;;;;;;;6060045;23;20098;-60
2023/09/26 12:21:31;;;;;;;8.07;4.22;;;;;;;;;;6059763;23;20030;-59
2023/09/26 12:24:18;;;;;;;7.07;3.85;;;;;;;;;;6060228;23;20090;-59
2023/09/26 12:27:12;;;;;;;6.00;3.58;;;;;;;;;;6059335;23;20030;-59
2023/09/26 12:29:59;;;;;;;9.43;4.38;;;;;;;;;;6058231;23;20026;-59
2023/09/26 12:32:53;;;;;;;5.55;3.90;;;;;;;;;;6059647;23;20038;-59
2023/09/26 12:35:40;;;;;;;7.15;3.80;;;;;;;;;;6060970;23;20383;-60
2023/09/26 12:38:35;;;;;;;10.35;4.20;;;;;;;;;;6059462;23;20019;-60
2023/09/26 12:41:22;;;;;;;7.55;3.70;;;;;;;;;;6058167;23;20516;-61
2023/09/26 12:44:15;;;;;;;9.07;4.10;;;;;;;;;;6060559;23;20034;-61
2023/09/26 12:47:02;;;;;;;8.95;4.10;;;;;;;;;;6059124;23;20026;-61
2023/09/26 12:49:56;;;;;;;7.57;4.07;;;;;;;;;;6060484;23;20115;-59
2023/09/26 12:52:44;;;;;;;6.45;3.60;;;;;;;;;;6058715;23;20027;-59
2023/09/26 12:55:37;;;;;;;6.72;3.55;;;;;;;;;;6056860;23;20027;-59
2023/09/26 12:58:25;;;;;;;8.45;3.90;;;;;;;;;;6060288;23;20086;-58
2023/09/26 13:01:18;;;;;;;6.40;3.45;;;;;;;;;;6059640;23;20052;-59
2023/09/26 13:04:06;;;;;;;7.20;3.90;;;;;;;;;;6059357;23;20386;-60
2023/09/26 13:07:00;;;;;;;6.32;3.35;;;;;;;;;;6059695;23;20357;-60
2023/09/26 13:09:47;;;;;;;9.55;3.75;;;;;;;;;;6059367;23;20034;-60
2023/09/26 13:12:41;;;;;;;4.82;3.08;;;;;;;;;;6057923;23;20563;-61
2023/09/26 13:15:31;;;;;;;5.82;2.90;;;;;;;;;;6058753;23;20082;-61
2023/09/26 13:18:22;;;;;;;9.52;3.50;;;;;;;;;;6057314;23;20461;-59
2023/09/26 13:21:17;;;;;;;6.70;3.47;;;;;;;;;;6058886;23;20082;-59
2023/09/26 13:24:10;;;;;;;7.47;3.67;;;;;;;;;;6060296;23;20019;-59
2023/09/26 13:27:04;;;;;;;7.40;3.40;;;;;;;;;;6059063;23;20503;-59
2023/09/26 13:29:51;;;;;;;8.60;3.20;;;;;;;;;;6059560;23;20038;-59
2023/09/26 13:32:45;;;;;;;6.45;3.20;;;;;;;;;;6060559;23;20334;-59
2023/09/26 13:35:33;;;;;;;5.80;2.83;;;;;;;;;;6057520;23;20102;-59
2023/09/26 13:38:26;;;;;;;8.52;4.05;;;;;;;;;;6058577;23;20401;-59
2023/09/26 13:41:13;;;;;;;8.73;3.50;;;;;;;;;;6058300;23;20023;-59
2023/09/26 13:44:07;;;;;;;4.63;3.22;;;;;;;;;;6058950;23;20023;-68
2023/09/26 13:46:55;;;;;;;5.63;3.08;;;;;;;;;;6058973;23;20027;-60
2023/09/26 13:49:48;;;;;;;5.82;3.33;;;;;;;;;;6058685;23;20339;-60
2023/09/26 13:52:35;;;;;;;11.05;3.45;;;;;;;;;;6058137;23;20022;-60
2023/09/26 13:55:29;;;;;;;4.65;3.13;;;;;;;;;;6056842;23;20033;-60
2023/09/26 13:58:16;;;;;;;9.80;3.65;;;;;;;;;;6059121;23;20369;-60
2023/09/26 14:01:10;;;;;;;5.70;3.13;;;;;;;;;;6059195;23;20062;-67
2023/09/26 14:04:05;;;;;;;5.72;3.20;;;;;;;;;;6059613;23;20022;-67
2023/09/26 14:06:52;;;;;;;5.53;3.22;;;;;;;;;;6059171;23;20049;-67
2023/09/26 14:09:45;;;;;;;5.15;3.13;;;;;;;;;;6059255;23;20023;-68
2023/09/26 14:12:33;;;;;;;6.53;3.20;;;;;;;;;;6058654;23;20142;-59
2023/09/26 14:15:26;;;;;;;4.53;2.92;;;;;;;;;;6058170;23;20018;-60
2023/09/26 14:18:00;;;;;;;3.83;2.97;;;;;;;;;;6083584;23;20041;-60
2023/09/26 14:20:35;;;;;;;5.95;3.00;;;;;;;;;;6087348;23;20076;-60
2023/09/26 14:23:25;;;;;;;5.60;3.08;;;;;;;;;;6085379;23;20019;-61
2023/09/26 14:26:19;;;;;;;4.35;3.25;;;;;;;;;;6085439;23;20030;-60
2023/09/26 14:29:22;;;;;;;6.28;3.00;;;;;;;;;;6086381;23;20026;-60
2023/09/26 14:32:22;;;;;;;8.57;3.25;;;;;;;;;;6082441;23;20034;-68
2023/09/26 14:35:10;;;;;;;6.38;3.05;;;;;;;;;;6089779;23;20030;-66
2023/09/26 14:38:05;;;;;;;6.05;2.97;;;;;;;;;;6089140;23;20476;-66
2023/09/26 14:40:53;;;;;;;7.95;2.90;;;;;;;;;;6090164;23;20023;-67
2023/09/26 14:43:45;;;;;;;5.65;2.70;;;;;;;;;;6090038;23;20457;-66
2023/09/26 14:46:36;;;;;;;6.10;2.85;;;;;;;;;;6086603;23;20027;-62
2023/09/26 14:49:30;;;;;;;7.75;3.10;;;;;;;;;;6087911;23;20022;-61
2023/09/26 14:52:17;;;;;;;4.72;2.92;;;;;;;;;;6089379;23;20688;-61
2023/09/26 14:55:10;;;;;;;4.45;2.97;;;;;;;;;;6086364;23;20026;-61
2023/09/26 14:57:58;;;;;;;5.30;3.00;;;;;;;;;;6088824;23;20030;-60
2023/09/26 15:00:51;;;;;;;5.65;3.00;;;;;;;;;;6089724;23;20027;-62
2023/09/26 15:03:39;;;;;;;7.47;3.05;;;;;;;;;;6089617;23;20023;-60
2023/09/26 15:06:32;;;;;;;8.80;3.55;;;;;;;;;;6088845;23;20022;-59
2023/09/26 15:09:20;;;;;;;4.47;2.78;;;;;;;;;;6085767;23;20026;-61
2023/09/26 15:12:14;;;;;;;5.53;3.22;;;;;;;;;;6088820;23;20023;-60
2023/09/26 15:15:04;;;;;;;4.63;2.95;;;;;;;;;;6090293;23;20026;-56
2023/09/26 15:18:05;;;;;;;4.80;2.88;;;;;;;;;;6090561;23;20026;-67
2023/09/26 15:20:52;;;;;;;7.68;2.83;;;;;;;;;;6086642;23;20073;-67
2023/09/26 15:23:47;;;;;;;4.22;2.75;;;;;;;;;;6089877;23;20098;-67
2023/09/26 15:26:33;;;;;;;6.78;2.83;;;;;;;;;;6087955;23;20416;-48
2023/09/26 15:29:27;;;;;;;6.40;3.17;;;;;;;;;;6088395;23;20465;-59
2023/09/26 15:32:14;;;;;;;3.90;2.75;;;;;;;;;;6089584;23;20030;-58
2023/09/26 15:35:08;;;;;;;5.03;3.08;;;;;;;;;;6088750;23;20100;-59
2023/09/26 15:37:56;;;;;;;8.43;3.47;;;;;;;;;;6087654;23;20059;-59
2023/09/26 15:40:55;;;;;;;6.53;3.03;;;;;;;;;;6088795;23;20022;-58
2023/09/26 15:43:43;;;;;;;7.05;3.05;;;;;;;;;;6088919;23;20054;-49
2023/09/26 15:46:37;;;;;;;5.38;2.78;;;;;;;;;;6088234;23;20026;-51
2023/09/26 15:49:24;;;;;;;6.57;3.17;;;;;;;;;;6082338;23;20030;-53
2023/09/26 15:52:17;;;;;;;3.95;2.92;;;;;;;;;;6087765;23;20402;-51
2023/09/26 15:55:06;;;;;;;6.25;3.30;;;;;;;;;;6085700;23;20109;-60
2023/09/26 15:57:59;;;;;;;6.38;3.30;;;;;;;;;;6089188;23;20026;-58
2023/09/26 16:00:47;;;;;;;6.75;3.08;;;;;;;;;;6087207;23;20026;-59
2023/09/26 16:03:41;;;;;;;4.32;3.30;;;;;;;;;;6088322;23;20102;-58
2023/09/26 16:06:29;;;;;;;4.32;3.00;;;;;;;;;;6087674;23;20026;-59
2023/09/26 16:09:22;;;;;;;7.50;3.30;;;;;;;;;;6086567;23;20330;-59
2023/09/26 16:12:10;;;;;;;6.22;3.00;;;;;;;;;;6088561;23;20019;-50
2023/09/26 16:15:13;;;;;;;6.70;3.35;;;;;;;;;;6086410;23;20129;-60
2023/09/26 16:18:07;;;;;;;4.95;2.90;;;;;;;;;;6084797;23;20026;-46
2023/09/26 16:21:01;;;;;;;8.63;3.40;;;;;;;;;;6088374;23;20354;-50
2023/09/26 16:23:51;;;;;;;9.45;3.38;;;;;;;;;;6082797;23;20093;-47
2023/09/26 16:26:42;;;;;;;6.70;3.10;;;;;;;;;;6085199;23;20657;-50
2023/09/26 16:29:36;;;;;;;6.53;3.33;;;;;;;;;;6085591;23;20026;-48
2023/09/26 16:32:23;;;;;;;5.78;3.10;;;;;;;;;;6086234;23;20098;-50
2023/09/26 16:35:17;;;;;;;6.55;3.20;;;;;;;;;;6085660;23;20101;-67
2023/09/26 16:38:05;;;;;;;4.93;3.17;;;;;;;;;;6085511;23;20022;-67
2023/09/26 16:40:44;;;;;;;6.20;3.00;;;;;;;;;;6084176;23;20030;-67
2023/09/26 16:43:38;;;;;;;5.07;3.05;;;;;;;;;;6087166;23;20030;-66
2023/09/26 16:46:26;;;;;;;7.80;3.60;;;;;;;;;;6084611;23;20101;-67
2023/09/26 16:49:20;;;;;;;6.57;3.88;;;;;;;;;;6086681;23;20037;-51